createdAt,value
2023-04-03T14:22:34.813Z,98266.22
2023-04-03T14:25:01.857Z,98299.66
2023-04-03T14:27:39.944Z,98294.69
2023-04-03T14:30:10.680Z,98281.22
2023-04-03T14:32:37.420Z,98269.97
2023-04-03T14:35:04.433Z,98273.75
2023-04-03T14:37:32.216Z,98255.47
2023-04-03T14:40:00.496Z,98267.38
2023-04-03T14:42:33.616Z,98260.25
2023-04-03T14:50:00.383Z,98292.75
2023-04-03T14:56:50.871Z,98279.88
2023-04-03T15:08:56.755Z,98281.88
2023-04-03T15:11:23.441Z,98284.66
2023-04-03T15:13:50.035Z,98292.56
2023-04-03T15:20:41.185Z,98303.22
2023-04-03T15:23:07.983Z,98278.94
2023-04-03T15:25:34.698Z,98310.19
2023-04-03T15:32:37.932Z,98308.19
2023-04-03T15:35:04.964Z,98258.66
2023-04-03T15:37:34.661Z,98301.00
2023-04-03T15:40:01.369Z,98291.81
2023-04-03T15:42:28.014Z,98288.63
2023-04-03T15:44:54.635Z,98289.69
2023-04-03T15:47:21.339Z,98313.53
2023-04-03T15:49:48.108Z,98291.25
2023-04-03T15:52:17.625Z,98294.03
2023-04-03T15:54:44.259Z,98300.53
2023-04-03T15:57:10.901Z,98300.78
2023-04-03T15:59:37.500Z,98291.91
2023-04-03T16:02:09.211Z,98295.78
2023-04-03T16:04:36.306Z,98303.03
2023-04-03T16:07:04.930Z,98316.22
2023-04-03T16:09:33.383Z,98304.31
2023-04-03T16:11:59.865Z,98325.78
2023-04-03T16:14:26.426Z,98320.13
2023-04-03T16:16:53.085Z,98330.47
2023-04-03T16:19:20.167Z,98338.50
2023-04-03T16:21:47.599Z,98312.56
2023-04-03T16:24:16.097Z,98311.06
2023-04-03T16:26:44.959Z,98325.88
2023-04-03T16:29:11.579Z,56916.91
2023-04-03T16:31:38.229Z,56916.91
2023-04-03T16:34:05.063Z,56916.91
2023-04-03T16:36:31.680Z,56916.91
2023-04-03T16:38:58.336Z,56916.91
2023-04-03T16:41:25.014Z,56916.91
2023-04-03T16:43:51.865Z,56916.91
2023-04-03T16:46:18.586Z,56916.91
2023-04-03T16:48:45.267Z,56916.91
2023-04-03T16:51:13.706Z,56916.91
2023-04-03T16:53:40.290Z,56916.91
2023-04-03T16:56:06.984Z,56916.91
2023-04-03T16:58:33.612Z,56916.91
2023-04-03T17:01:08.989Z,56916.91
2023-04-03T17:03:35.715Z,56916.91
2023-04-03T17:06:02.400Z,56916.91
2023-04-03T17:08:28.964Z,56916.91
2023-04-03T17:10:56.107Z,56916.91
2023-04-03T17:13:22.779Z,56916.91
2023-04-03T17:15:49.833Z,56916.91
2023-04-03T17:18:16.565Z,56916.91
2023-04-03T17:20:43.294Z,56916.91
2023-04-03T17:24:09.434Z,56916.91
2023-04-03T17:48:19.555Z,56916.91
2023-04-03T17:50:46.293Z,56916.91
2023-04-03T17:53:15.058Z,56916.91
2023-04-03T17:55:41.715Z,56916.91
2023-04-03T17:58:08.373Z,56916.91
2023-04-03T18:08:11.852Z,56916.91
2023-04-03T18:10:38.765Z,56916.91
2023-04-03T18:13:07.812Z,56916.91
2023-04-03T18:15:34.635Z,56916.91
2023-04-03T18:18:01.328Z,56916.91
2023-04-03T18:20:28.209Z,56916.91
2023-04-03T18:35:51.526Z,56916.91
2023-04-03T18:38:18.265Z,56916.91
2023-04-03T18:49:53.753Z,56916.91
2023-04-03T18:52:31.091Z,56916.91
2023-04-03T19:08:23.969Z,56916.91
2023-04-03T19:18:31.460Z,56916.91
2023-04-03T19:29:19.050Z,56916.91
2023-04-03T19:37:28.503Z,56916.91
2023-04-03T19:40:42.586Z,56916.91
2023-04-03T20:14:49.457Z,56916.91
2023-04-03T20:22:34.827Z,56916.91
2023-04-03T20:26:11.754Z,56916.91
2023-04-03T20:33:17.925Z,56916.91
2023-04-03T21:37:55.260Z,56916.91
